Allegan, Michigan
Current Conditions -  °F | °C
As of 9:53 PM on Friday 28 Nov 2014 (Local Time) from KBIV Reporting Station
Light Snow Light Snow  
Wind Chill: 21°   Ceiling: 2600
Heat Index: 30°   Visibility: 7mi
Dew Point: 21°   Wind: 12mph
Humidity: 69%   Direction: 150°SSE
Pressure: 30"   Gusts: NA
Location:  42.53°N, 85.86°W
Report Text: KBIV 290253Z AUTO 15010KT 7SM -SN OVC026 M01/M06 A3000 RMK AO2 SNB41 SLP167 P0000 60000 T10111061 58018
Loading
Personal Weather Stations






























Interactive Weather Map New forecast layout! Learn more

10-Day Weather Forecast

Advertisements
Track Severe Weather on mobile